sensor_id;sensor_type;location;lat;lon;timestamp;P1;durP1;ratioP1;P2;durP2;ratioP2
24277;SDS011;12394;42.692;23.314;2023-12-14T00:00:36;15.50;;;9.37;;
24277;SDS011;12394;42.692;23.314;2023-12-14T00:03:02;12.90;;;8.80;;
24277;SDS011;12394;42.692;23.314;2023-12-14T00:05:27;13.90;;;9.40;;
24277;SDS011;12394;42.692;23.314;2023-12-14T00:07:53;15.37;;;9.43;;
24277;SDS011;12394;42.692;23.314;2023-12-14T00:10:18;13.87;;;9.33;;
24277;SDS011;12394;42.692;23.314;2023-12-14T00:12:44;16.70;;;8.60;;
24277;SDS011;12394;42.692;23.314;2023-12-14T00:15:09;12.40;;;8.77;;
24277;SDS011;12394;42.692;23.314;2023-12-14T00:17:35;13.77;;;8.60;;
24277;SDS011;12394;42.692;23.314;2023-12-14T00:20:01;13.47;;;9.47;;
24277;SDS011;12394;42.692;23.314;2023-12-14T00:22:28;16.63;;;12.50;;
24277;SDS011;12394;42.692;23.314;2023-12-14T00:24:53;17.30;;;10.57;;
24277;SDS011;12394;42.692;23.314;2023-12-14T00:27:19;18.67;;;13.27;;
24277;SDS011;12394;42.692;23.314;2023-12-14T00:29:44;18.67;;;14.13;;
24277;SDS011;12394;42.692;23.314;2023-12-14T00:32:10;23.50;;;13.30;;
24277;SDS011;12394;42.692;23.314;2023-12-14T00:34:35;20.20;;;12.80;;
24277;SDS011;12394;42.692;23.314;2023-12-14T00:37:01;20.17;;;11.83;;
24277;SDS011;12394;42.692;23.314;2023-12-14T00:39:27;15.80;;;12.00;;
24277;SDS011;12394;42.692;23.314;2023-12-14T00:41:52;19.03;;;11.40;;
24277;SDS011;12394;42.692;23.314;2023-12-14T00:44:18;20.10;;;12.27;;
24277;SDS011;12394;42.692;23.314;2023-12-14T00:46:43;16.90;;;11.43;;
24277;SDS011;12394;42.692;23.314;2023-12-14T00:49:08;19.77;;;11.70;;
24277;SDS011;12394;42.692;23.314;2023-12-14T00:51:34;18.10;;;11.97;;
24277;SDS011;12394;42.692;23.314;2023-12-14T00:53:59;20.60;;;12.60;;
24277;SDS011;12394;42.692;23.314;2023-12-14T00:56:25;19.90;;;13.00;;
24277;SDS011;12394;42.692;23.314;2023-12-14T00:58:50;21.83;;;12.90;;
24277;SDS011;12394;42.692;23.314;2023-12-14T01:01:16;21.27;;;13.57;;
24277;SDS011;12394;42.692;23.314;2023-12-14T01:03:41;24.27;;;15.53;;
24277;SDS011;12394;42.692;23.314;2023-12-14T01:06:07;23.47;;;14.00;;
24277;SDS011;12394;42.692;23.314;2023-12-14T01:08:32;22.63;;;14.83;;
24277;SDS011;12394;42.692;23.314;2023-12-14T01:10:58;23.97;;;14.80;;
24277;SDS011;12394;42.692;23.314;2023-12-14T01:13:23;23.03;;;14.33;;
24277;SDS011;12394;42.692;23.314;2023-12-14T01:15:49;27.53;;;14.73;;
24277;SDS011;12394;42.692;23.314;2023-12-14T01:18:14;20.93;;;13.83;;
24277;SDS011;12394;42.692;23.314;2023-12-14T01:20:40;23.43;;;15.10;;
24277;SDS011;12394;42.692;23.314;2023-12-14T01:23:06;20.07;;;14.47;;
24277;SDS011;12394;42.692;23.314;2023-12-14T01:25:34;23.03;;;14.23;;
24277;SDS011;12394;42.692;23.314;2023-12-14T01:28:00;22.37;;;14.80;;
24277;SDS011;12394;42.692;23.314;2023-12-14T01:30:25;21.90;;;14.70;;
24277;SDS011;12394;42.692;23.314;2023-12-14T01:32:51;22.83;;;14.67;;
24277;SDS011;12394;42.692;23.314;2023-12-14T01:35:16;21.77;;;15.03;;
24277;SDS011;12394;42.692;23.314;2023-12-14T01:37:42;22.63;;;14.53;;
24277;SDS011;12394;42.692;23.314;2023-12-14T01:40:07;20.53;;;13.57;;
24277;SDS011;12394;42.692;23.314;2023-12-14T01:42:33;21.30;;;14.40;;
24277;SDS011;12394;42.692;23.314;2023-12-14T01:44:59;23.17;;;14.43;;
24277;SDS011;12394;42.692;23.314;2023-12-14T01:47:24;21.93;;;13.77;;
24277;SDS011;12394;42.692;23.314;2023-12-14T01:49:50;22.50;;;13.77;;
24277;SDS011;12394;42.692;23.314;2023-12-14T01:52:15;22.03;;;14.30;;
24277;SDS011;12394;42.692;23.314;2023-12-14T01:54:40;18.03;;;12.93;;
24277;SDS011;12394;42.692;23.314;2023-12-14T01:57:06;19.50;;;14.23;;
24277;SDS011;12394;42.692;23.314;2023-12-14T01:59:32;19.97;;;12.53;;
24277;SDS011;12394;42.692;23.314;2023-12-14T02:01:58;20.80;;;13.57;;
24277;SDS011;12394;42.692;23.314;2023-12-14T02:04:24;19.43;;;13.77;;
24277;SDS011;12394;42.692;23.314;2023-12-14T02:06:50;22.40;;;13.60;;
24277;SDS011;12394;42.692;23.314;2023-12-14T02:09:16;20.43;;;13.60;;
24277;SDS011;12394;42.692;23.314;2023-12-14T02:11:41;26.73;;;15.20;;
24277;SDS011;12394;42.692;23.314;2023-12-14T02:14:08;18.90;;;12.17;;
24277;SDS011;12394;42.692;23.314;2023-12-14T02:16:35;20.13;;;13.23;;
24277;SDS011;12394;42.692;23.314;2023-12-14T02:19:03;23.00;;;14.40;;
24277;SDS011;12394;42.692;23.314;2023-12-14T02:21:29;24.30;;;14.23;;
24277;SDS011;12394;42.692;23.314;2023-12-14T02:23:55;17.97;;;12.97;;
24277;SDS011;12394;42.692;23.314;2023-12-14T02:26:20;21.70;;;12.70;;
24277;SDS011;12394;42.692;23.314;2023-12-14T02:28:46;25.87;;;15.17;;
24277;SDS011;12394;42.692;23.314;2023-12-14T02:31:12;19.57;;;13.57;;
24277;SDS011;12394;42.692;23.314;2023-12-14T02:33:37;18.67;;;13.27;;
24277;SDS011;12394;42.692;23.314;2023-12-14T02:36:03;20.67;;;13.87;;
24277;SDS011;12394;42.692;23.314;2023-12-14T02:38:29;21.93;;;14.17;;
24277;SDS011;12394;42.692;23.314;2023-12-14T02:40:55;18.50;;;12.83;;
24277;SDS011;12394;42.692;23.314;2023-12-14T02:43:21;24.10;;;13.77;;
24277;SDS011;12394;42.692;23.314;2023-12-14T02:45:48;19.23;;;13.63;;
24277;SDS011;12394;42.692;23.314;2023-12-14T02:48:14;20.27;;;13.07;;
24277;SDS011;12394;42.692;23.314;2023-12-14T02:50:39;25.80;;;12.77;;
24277;SDS011;12394;42.692;23.314;2023-12-14T02:53:05;19.17;;;13.13;;
24277;SDS011;12394;42.692;23.314;2023-12-14T02:55:30;20.57;;;12.90;;
24277;SDS011;12394;42.692;23.314;2023-12-14T02:57:56;20.63;;;13.47;;
24277;SDS011;12394;42.692;23.314;2023-12-14T03:02:56;19.30;;;12.60;;
24277;SDS011;12394;42.692;23.314;2023-12-14T03:05:22;18.87;;;12.27;;
24277;SDS011;12394;42.692;23.314;2023-12-14T03:07:47;18.80;;;11.33;;
24277;SDS011;12394;42.692;23.314;2023-12-14T03:10:13;19.57;;;12.90;;
24277;SDS011;12394;42.692;23.314;2023-12-14T03:12:38;22.43;;;12.87;;
24277;SDS011;12394;42.692;23.314;2023-12-14T03:15:04;21.00;;;12.90;;
24277;SDS011;12394;42.692;23.314;2023-12-14T03:17:29;20.67;;;12.60;;
24277;SDS011;12394;42.692;23.314;2023-12-14T03:19:55;22.30;;;12.80;;
24277;SDS011;12394;42.692;23.314;2023-12-14T03:22:20;20.63;;;11.87;;
24277;SDS011;12394;42.692;23.314;2023-12-14T03:24:46;17.60;;;11.30;;
24277;SDS011;12394;42.692;23.314;2023-12-14T03:27:11;20.20;;;12.13;;
24277;SDS011;12394;42.692;23.314;2023-12-14T03:29:37;16.53;;;10.50;;
24277;SDS011;12394;42.692;23.314;2023-12-14T03:32:02;20.53;;;12.47;;
24277;SDS011;12394;42.692;23.314;2023-12-14T03:34:28;19.23;;;12.63;;
24277;SDS011;12394;42.692;23.314;2023-12-14T03:36:54;18.60;;;12.80;;
24277;SDS011;12394;42.692;23.314;2023-12-14T03:39:19;20.70;;;12.13;;
24277;SDS011;12394;42.692;23.314;2023-12-14T03:41:45;18.67;;;11.80;;
24277;SDS011;12394;42.692;23.314;2023-12-14T03:44:10;19.47;;;10.60;;
24277;SDS011;12394;42.692;23.314;2023-12-14T03:46:36;19.77;;;11.23;;
24277;SDS011;12394;42.692;23.314;2023-12-14T03:49:02;18.50;;;11.17;;
24277;SDS011;12394;42.692;23.314;2023-12-14T03:51:28;16.70;;;11.10;;
24277;SDS011;12394;42.692;23.314;2023-12-14T03:53:54;16.03;;;11.47;;
24277;SDS011;12394;42.692;23.314;2023-12-14T03:56:19;19.07;;;11.90;;
24277;SDS011;12394;42.692;23.314;2023-12-14T03:58:45;20.10;;;11.83;;
24277;SDS011;12394;42.692;23.314;2023-12-14T04:01:20;18.60;;;12.07;;
24277;SDS011;12394;42.692;23.314;2023-12-14T04:03:46;18.47;;;12.03;;
24277;SDS011;12394;42.692;23.314;2023-12-14T04:06:13;16.70;;;11.83;;
24277;SDS011;12394;42.692;23.314;2023-12-14T04:08:39;19.57;;;11.80;;
24277;SDS011;12394;42.692;23.314;2023-12-14T04:11:05;15.87;;;11.50;;
24277;SDS011;12394;42.692;23.314;2023-12-14T04:13:31;18.97;;;11.87;;
24277;SDS011;12394;42.692;23.314;2023-12-14T04:15:56;20.67;;;11.53;;
24277;SDS011;12394;42.692;23.314;2023-12-14T04:18:22;19.77;;;11.60;;
24277;SDS011;12394;42.692;23.314;2023-12-14T04:20:48;18.17;;;10.77;;
24277;SDS011;12394;42.692;23.314;2023-12-14T04:23:13;18.47;;;10.80;;
24277;SDS011;12394;42.692;23.314;2023-12-14T04:25:39;14.97;;;10.53;;
24277;SDS011;12394;42.692;23.314;2023-12-14T04:28:04;16.83;;;10.87;;
24277;SDS011;12394;42.692;23.314;2023-12-14T04:30:30;18.60;;;10.83;;
24277;SDS011;12394;42.692;23.314;2023-12-14T04:32:55;17.40;;;11.17;;
24277;SDS011;12394;42.692;23.314;2023-12-14T04:35:21;13.83;;;10.87;;
24277;SDS011;12394;42.692;23.314;2023-12-14T04:37:47;20.93;;;12.90;;
24277;SDS011;12394;42.692;23.314;2023-12-14T04:40:13;24.93;;;13.93;;
24277;SDS011;12394;42.692;23.314;2023-12-14T04:42:38;23.80;;;14.77;;
24277;SDS011;12394;42.692;23.314;2023-12-14T04:45:04;25.37;;;16.03;;
24277;SDS011;12394;42.692;23.314;2023-12-14T04:47:30;28.50;;;15.73;;
24277;SDS011;12394;42.692;23.314;2023-12-14T04:49:56;28.13;;;15.80;;
24277;SDS011;12394;42.692;23.314;2023-12-14T04:52:21;22.67;;;15.30;;
24277;SDS011;12394;42.692;23.314;2023-12-14T04:54:47;27.23;;;15.20;;
24277;SDS011;12394;42.692;23.314;2023-12-14T04:57:12;24.63;;;15.77;;
24277;SDS011;12394;42.692;23.314;2023-12-14T04:59:40;26.93;;;15.53;;
24277;SDS011;12394;42.692;23.314;2023-12-14T05:02:06;29.07;;;17.77;;
24277;SDS011;12394;42.692;23.314;2023-12-14T05:04:32;33.03;;;18.43;;
24277;SDS011;12394;42.692;23.314;2023-12-14T05:06:57;29.47;;;20.53;;
24277;SDS011;12394;42.692;23.314;2023-12-14T05:09:23;30.00;;;19.70;;
24277;SDS011;12394;42.692;23.314;2023-12-14T05:11:48;37.53;;;20.77;;
24277;SDS011;12394;42.692;23.314;2023-12-14T05:14:14;29.07;;;19.30;;
24277;SDS011;12394;42.692;23.314;2023-12-14T05:16:39;24.37;;;16.50;;
24277;SDS011;12394;42.692;23.314;2023-12-14T05:19:04;30.53;;;19.87;;
24277;SDS011;12394;42.692;23.314;2023-12-14T05:21:30;26.70;;;17.03;;
24277;SDS011;12394;42.692;23.314;2023-12-14T05:23:55;29.80;;;17.80;;
24277;SDS011;12394;42.692;23.314;2023-12-14T05:26:21;23.93;;;14.40;;
24277;SDS011;12394;42.692;23.314;2023-12-14T05:28:46;27.20;;;16.30;;
24277;SDS011;12394;42.692;23.314;2023-12-14T05:31:12;31.00;;;17.67;;
24277;SDS011;12394;42.692;23.314;2023-12-14T05:33:38;30.07;;;17.53;;
24277;SDS011;12394;42.692;23.314;2023-12-14T05:36:05;22.50;;;15.00;;
24277;SDS011;12394;42.692;23.314;2023-12-14T05:38:34;23.90;;;15.60;;
24277;SDS011;12394;42.692;23.314;2023-12-14T05:40:59;24.73;;;15.07;;
24277;SDS011;12394;42.692;23.314;2023-12-14T05:43:25;24.77;;;14.67;;
24277;SDS011;12394;42.692;23.314;2023-12-14T05:45:50;31.17;;;15.30;;
24277;SDS011;12394;42.692;23.314;2023-12-14T05:48:16;32.87;;;17.23;;
24277;SDS011;12394;42.692;23.314;2023-12-14T05:50:41;25.73;;;14.23;;
24277;SDS011;12394;42.692;23.314;2023-12-14T05:53:07;29.57;;;16.80;;
24277;SDS011;12394;42.692;23.314;2023-12-14T05:55:32;36.57;;;17.60;;
24277;SDS011;12394;42.692;23.314;2023-12-14T05:57:58;28.73;;;16.10;;
24277;SDS011;12394;42.692;23.314;2023-12-14T06:00:23;35.57;;;19.63;;
24277;SDS011;12394;42.692;23.314;2023-12-14T06:02:49;24.77;;;16.43;;
24277;SDS011;12394;42.692;23.314;2023-12-14T06:05:14;30.33;;;16.97;;
24277;SDS011;12394;42.692;23.314;2023-12-14T06:07:40;30.40;;;16.97;;
24277;SDS011;12394;42.692;23.314;2023-12-14T06:10:05;30.43;;;16.53;;
24277;SDS011;12394;42.692;23.314;2023-12-14T06:12:31;33.00;;;16.37;;
24277;SDS011;12394;42.692;23.314;2023-12-14T06:14:57;29.40;;;16.10;;
24277;SDS011;12394;42.692;23.314;2023-12-14T06:17:22;20.80;;;12.83;;
24277;SDS011;12394;42.692;23.314;2023-12-14T06:19:48;24.73;;;13.20;;
24277;SDS011;12394;42.692;23.314;2023-12-14T06:22:13;19.10;;;13.13;;
24277;SDS011;12394;42.692;23.314;2023-12-14T06:24:39;14.70;;;8.40;;
24277;SDS011;12394;42.692;23.314;2023-12-14T06:27:04;13.57;;;7.73;;
24277;SDS011;12394;42.692;23.314;2023-12-14T06:29:30;16.63;;;11.67;;
24277;SDS011;12394;42.692;23.314;2023-12-14T06:31:56;10.57;;;7.50;;
24277;SDS011;12394;42.692;23.314;2023-12-14T06:34:21;68.20;;;34.40;;
24277;SDS011;12394;42.692;23.314;2023-12-14T06:36:47;17.57;;;9.37;;
24277;SDS011;12394;42.692;23.314;2023-12-14T06:39:12;19.43;;;10.23;;
24277;SDS011;12394;42.692;23.314;2023-12-14T06:41:38;19.10;;;11.20;;
24277;SDS011;12394;42.692;23.314;2023-12-14T06:44:04;18.77;;;10.17;;
24277;SDS011;12394;42.692;23.314;2023-12-14T06:46:30;19.23;;;10.30;;
24277;SDS011;12394;42.692;23.314;2023-12-14T06:48:55;34.33;;;19.87;;
24277;SDS011;12394;42.692;23.314;2023-12-14T06:51:21;13.00;;;10.23;;
24277;SDS011;12394;42.692;23.314;2023-12-14T06:53:47;18.97;;;10.53;;
24277;SDS011;12394;42.692;23.314;2023-12-14T06:56:13;17.87;;;9.30;;
24277;SDS011;12394;42.692;23.314;2023-12-14T06:58:42;18.97;;;11.57;;
24277;SDS011;12394;42.692;23.314;2023-12-14T07:01:12;14.03;;;8.90;;
24277;SDS011;12394;42.692;23.314;2023-12-14T07:03:42;20.07;;;9.60;;
24277;SDS011;12394;42.692;23.314;2023-12-14T07:06:12;18.27;;;9.27;;
24277;SDS011;12394;42.692;23.314;2023-12-14T07:08:38;14.53;;;8.77;;
24277;SDS011;12394;42.692;23.314;2023-12-14T07:11:05;11.63;;;8.67;;
24277;SDS011;12394;42.692;23.314;2023-12-14T07:13:30;16.03;;;8.60;;
24277;SDS011;12394;42.692;23.314;2023-12-14T07:15:56;20.23;;;9.50;;
24277;SDS011;12394;42.692;23.314;2023-12-14T07:18:21;23.27;;;12.33;;
24277;SDS011;12394;42.692;23.314;2023-12-14T07:20:46;21.03;;;10.53;;
24277;SDS011;12394;42.692;23.314;2023-12-14T07:23:12;19.37;;;9.53;;
24277;SDS011;12394;42.692;23.314;2023-12-14T07:25:37;18.80;;;10.13;;
24277;SDS011;12394;42.692;23.314;2023-12-14T07:28:03;24.60;;;10.17;;
24277;SDS011;12394;42.692;23.314;2023-12-14T07:30:29;19.37;;;9.33;;
24277;SDS011;12394;42.692;23.314;2023-12-14T07:32:54;31.97;;;12.00;;
24277;SDS011;12394;42.692;23.314;2023-12-14T07:35:20;29.10;;;12.27;;
24277;SDS011;12394;42.692;23.314;2023-12-14T07:37:45;17.37;;;10.17;;
24277;SDS011;12394;42.692;23.314;2023-12-14T07:40:11;19.63;;;10.03;;
24277;SDS011;12394;42.692;23.314;2023-12-14T07:42:36;20.30;;;11.00;;
24277;SDS011;12394;42.692;23.314;2023-12-14T07:45:02;20.67;;;9.90;;
24277;SDS011;12394;42.692;23.314;2023-12-14T07:47:28;17.80;;;10.80;;
24277;SDS011;12394;42.692;23.314;2023-12-14T07:49:53;17.17;;;8.90;;
24277;SDS011;12394;42.692;23.314;2023-12-14T07:52:19;15.13;;;9.23;;
24277;SDS011;12394;42.692;23.314;2023-12-14T07:54:45;15.80;;;8.87;;
24277;SDS011;12394;42.692;23.314;2023-12-14T07:57:10;23.30;;;12.00;;
24277;SDS011;12394;42.692;23.314;2023-12-14T07:59:36;21.13;;;11.17;;
24277;SDS011;12394;42.692;23.314;2023-12-14T08:02:01;16.73;;;9.50;;
24277;SDS011;12394;42.692;23.314;2023-12-14T08:04:27;20.27;;;10.00;;
24277;SDS011;12394;42.692;23.314;2023-12-14T08:06:54;21.43;;;9.87;;
24277;SDS011;12394;42.692;23.314;2023-12-14T08:09:20;26.37;;;9.87;;
24277;SDS011;12394;42.692;23.314;2023-12-14T08:11:45;24.50;;;14.17;;
24277;SDS011;12394;42.692;23.314;2023-12-14T08:14:12;18.97;;;9.33;;
24277;SDS011;12394;42.692;23.314;2023-12-14T08:16:48;15.70;;;8.87;;
24277;SDS011;12394;42.692;23.314;2023-12-14T08:19:14;18.00;;;10.70;;
24277;SDS011;12394;42.692;23.314;2023-12-14T08:21:39;15.83;;;9.83;;
24277;SDS011;12394;42.692;23.314;2023-12-14T08:24:04;13.80;;;9.63;;
24277;SDS011;12394;42.692;23.314;2023-12-14T08:26:32;26.30;;;11.27;;
24277;SDS011;12394;42.692;23.314;2023-12-14T08:28:58;25.20;;;12.00;;
24277;SDS011;12394;42.692;23.314;2023-12-14T08:31:24;17.43;;;9.20;;
24277;SDS011;12394;42.692;23.314;2023-12-14T08:33:50;20.57;;;11.50;;
24277;SDS011;12394;42.692;23.314;2023-12-14T08:36:17;20.60;;;9.30;;
24277;SDS011;12394;42.692;23.314;2023-12-14T08:38:43;15.20;;;8.63;;
24277;SDS011;12394;42.692;23.314;2023-12-14T08:41:11;23.23;;;10.47;;
24277;SDS011;12394;42.692;23.314;2023-12-14T08:43:38;17.83;;;9.43;;
24277;SDS011;12394;42.692;23.314;2023-12-14T08:46:04;21.87;;;9.70;;
24277;SDS011;12394;42.692;23.314;2023-12-14T08:48:29;31.20;;;11.73;;
24277;SDS011;12394;42.692;23.314;2023-12-14T08:50:55;41.73;;;14.70;;
24277;SDS011;12394;42.692;23.314;2023-12-14T08:53:20;42.57;;;12.93;;
24277;SDS011;12394;42.692;23.314;2023-12-14T08:55:46;13.43;;;8.17;;
24277;SDS011;12394;42.692;23.314;2023-12-14T08:58:12;16.43;;;9.40;;
24277;SDS011;12394;42.692;23.314;2023-12-14T09:00:38;17.70;;;8.63;;
24277;SDS011;12394;42.692;23.314;2023-12-14T09:03:03;21.60;;;9.10;;
24277;SDS011;12394;42.692;23.314;2023-12-14T09:05:29;29.83;;;11.50;;
24277;SDS011;12394;42.692;23.314;2023-12-14T09:07:54;18.70;;;7.63;;
24277;SDS011;12394;42.692;23.314;2023-12-14T09:10:22;27.90;;;10.63;;
24277;SDS011;12394;42.692;23.314;2023-12-14T09:12:47;15.57;;;8.30;;
24277;SDS011;12394;42.692;23.314;2023-12-14T09:15:13;19.83;;;9.23;;
24277;SDS011;12394;42.692;23.314;2023-12-14T09:17:40;17.20;;;10.33;;
24277;SDS011;12394;42.692;23.314;2023-12-14T09:20:07;22.93;;;9.60;;
24277;SDS011;12394;42.692;23.314;2023-12-14T09:22:33;11.40;;;7.13;;
24277;SDS011;12394;42.692;23.314;2023-12-14T09:24:59;13.50;;;7.57;;
24277;SDS011;12394;42.692;23.314;2023-12-14T09:27:24;22.17;;;9.03;;
24277;SDS011;12394;42.692;23.314;2023-12-14T09:29:50;12.67;;;7.00;;
24277;SDS011;12394;42.692;23.314;2023-12-14T09:32:15;14.63;;;7.23;;
24277;SDS011;12394;42.692;23.314;2023-12-14T09:34:42;12.60;;;7.37;;
24277;SDS011;12394;42.692;23.314;2023-12-14T09:37:08;39.50;;;25.70;;
24277;SDS011;12394;42.692;23.314;2023-12-14T09:39:34;15.13;;;7.57;;
24277;SDS011;12394;42.692;23.314;2023-12-14T09:42:04;12.40;;;7.63;;
24277;SDS011;12394;42.692;23.314;2023-12-14T09:44:31;14.93;;;7.17;;
24277;SDS011;12394;42.692;23.314;2023-12-14T09:46:57;12.13;;;8.03;;
24277;SDS011;12394;42.692;23.314;2023-12-14T09:49:25;12.53;;;8.10;;
24277;SDS011;12394;42.692;23.314;2023-12-14T09:51:54;20.83;;;7.80;;
24277;SDS011;12394;42.692;23.314;2023-12-14T09:54:20;23.43;;;9.20;;
24277;SDS011;12394;42.692;23.314;2023-12-14T09:56:46;17.37;;;8.83;;
24277;SDS011;12394;42.692;23.314;2023-12-14T09:59:12;14.03;;;7.20;;
24277;SDS011;12394;42.692;23.314;2023-12-14T10:01:38;22.47;;;8.53;;
24277;SDS011;12394;42.692;23.314;2023-12-14T10:04:07;14.47;;;8.43;;
24277;SDS011;12394;42.692;23.314;2023-12-14T10:06:40;12.30;;;7.57;;
24277;SDS011;12394;42.692;23.314;2023-12-14T10:09:06;23.20;;;7.60;;
24277;SDS011;12394;42.692;23.314;2023-12-14T10:11:38;26.10;;;10.37;;
24277;SDS011;12394;42.692;23.314;2023-12-14T10:14:21;17.20;;;9.10;;
24277;SDS011;12394;42.692;23.314;2023-12-14T10:16:49;17.60;;;9.33;;
24277;SDS011;12394;42.692;23.314;2023-12-14T10:19:18;14.07;;;8.40;;
24277;SDS011;12394;42.692;23.314;2023-12-14T10:21:48;15.87;;;8.67;;
24277;SDS011;12394;42.692;23.314;2023-12-14T10:24:15;21.63;;;9.20;;
24277;SDS011;12394;42.692;23.314;2023-12-14T10:26:41;14.70;;;8.43;;
24277;SDS011;12394;42.692;23.314;2023-12-14T10:29:07;18.20;;;9.67;;
24277;SDS011;12394;42.692;23.314;2023-12-14T10:31:32;17.67;;;9.20;;
24277;SDS011;12394;42.692;23.314;2023-12-14T10:34:02;24.20;;;10.67;;
24277;SDS011;12394;42.692;23.314;2023-12-14T10:36:28;18.03;;;9.83;;
24277;SDS011;12394;42.692;23.314;2023-12-14T10:38:56;14.30;;;8.80;;
24277;SDS011;12394;42.692;23.314;2023-12-14T10:41:25;17.40;;;9.57;;
24277;SDS011;12394;42.692;23.314;2023-12-14T10:43:54;23.00;;;10.57;;
24277;SDS011;12394;42.692;23.314;2023-12-14T10:46:21;24.97;;;10.93;;
24277;SDS011;12394;42.692;23.314;2023-12-14T10:48:49;18.23;;;10.37;;
24277;SDS011;12394;42.692;23.314;2023-12-14T10:51:16;17.20;;;9.67;;
24277;SDS011;12394;42.692;23.314;2023-12-14T10:53:44;12.47;;;9.50;;
24277;SDS011;12394;42.692;23.314;2023-12-14T10:56:12;19.30;;;10.47;;
24277;SDS011;12394;42.692;23.314;2023-12-14T11:01:13;10.47;;;7.00;;
24277;SDS011;12394;42.692;23.314;2023-12-14T11:03:40;14.40;;;7.23;;
24277;SDS011;12394;42.692;23.314;2023-12-14T11:08:54;7.77;;;5.33;;
24277;SDS011;12394;42.692;23.314;2023-12-14T11:11:22;12.10;;;6.93;;
24277;SDS011;12394;42.692;23.314;2023-12-14T11:13:51;12.53;;;5.37;;
24277;SDS011;12394;42.692;23.314;2023-12-14T11:16:22;6.73;;;4.83;;
24277;SDS011;12394;42.692;23.314;2023-12-14T11:19:23;8.53;;;4.00;;
24277;SDS011;12394;42.692;23.314;2023-12-14T11:21:48;4.87;;;3.67;;
24277;SDS011;12394;42.692;23.314;2023-12-14T11:24:25;9.83;;;4.07;;
24277;SDS011;12394;42.692;23.314;2023-12-14T11:26:55;11.13;;;2.63;;
24277;SDS011;12394;42.692;23.314;2023-12-14T11:29:40;3.07;;;2.77;;
24277;SDS011;12394;42.692;23.314;2023-12-14T11:32:09;3.93;;;2.53;;
24277;SDS011;12394;42.692;23.314;2023-12-14T11:34:35;6.90;;;2.73;;
24277;SDS011;12394;42.692;23.314;2023-12-14T11:37:00;6.43;;;2.93;;
24277;SDS011;12394;42.692;23.314;2023-12-14T11:39:29;9.23;;;1.93;;
24277;SDS011;12394;42.692;23.314;2023-12-14T11:42:04;2.47;;;1.80;;
24277;SDS011;12394;42.692;23.314;2023-12-14T11:44:33;6.30;;;2.80;;
24277;SDS011;12394;42.692;23.314;2023-12-14T11:46:59;7.63;;;2.53;;
24277;SDS011;12394;42.692;23.314;2023-12-14T11:49:25;3.40;;;1.60;;
24277;SDS011;12394;42.692;23.314;2023-12-14T11:51:54;4.53;;;1.73;;
24277;SDS011;12394;42.692;23.314;2023-12-14T11:54:21;2.90;;;1.73;;
24277;SDS011;12394;42.692;23.314;2023-12-14T11:56:49;3.17;;;1.23;;
24277;SDS011;12394;42.692;23.314;2023-12-14T11:59:16;3.70;;;1.60;;
24277;SDS011;12394;42.692;23.314;2023-12-14T12:01:55;3.17;;;1.40;;
24277;SDS011;12394;42.692;23.314;2023-12-14T12:04:22;2.57;;;1.27;;
24277;SDS011;12394;42.692;23.314;2023-12-14T12:06:48;3.37;;;1.20;;
24277;SDS011;12394;42.692;23.314;2023-12-14T12:09:14;6.83;;;1.30;;
24277;SDS011;12394;42.692;23.314;2023-12-14T12:11:57;2.70;;;1.40;;
24277;SDS011;12394;42.692;23.314;2023-12-14T12:14:22;6.17;;;1.23;;
24277;SDS011;12394;42.692;23.314;2023-12-14T12:16:48;1.63;;;1.10;;
24277;SDS011;12394;42.692;23.314;2023-12-14T12:19:15;1.50;;;1.23;;
24277;SDS011;12394;42.692;23.314;2023-12-14T12:21:40;1.53;;;1.40;;
24277;SDS011;12394;42.692;23.314;2023-12-14T12:24:06;1.10;;;1.00;;
24277;SDS011;12394;42.692;23.314;2023-12-14T12:26:31;1.43;;;1.10;;
24277;SDS011;12394;42.692;23.314;2023-12-14T12:28:57;2.07;;;1.57;;
24277;SDS011;12394;42.692;23.314;2023-12-14T12:31:28;2.17;;;1.40;;
24277;SDS011;12394;42.692;23.314;2023-12-14T12:33:54;4.30;;;1.90;;
24277;SDS011;12394;42.692;23.314;2023-12-14T12:36:22;3.23;;;1.20;;
24277;SDS011;12394;42.692;23.314;2023-12-14T12:38:48;2.30;;;1.23;;
24277;SDS011;12394;42.692;23.314;2023-12-14T12:41:13;1.57;;;1.23;;
24277;SDS011;12394;42.692;23.314;2023-12-14T12:43:39;1.10;;;1.00;;
24277;SDS011;12394;42.692;23.314;2023-12-14T12:46:04;3.03;;;1.40;;
24277;SDS011;12394;42.692;23.314;2023-12-14T12:48:30;2.40;;;1.00;;
24277;SDS011;12394;42.692;23.314;2023-12-14T12:50:55;2.23;;;1.23;;
24277;SDS011;12394;42.692;23.314;2023-12-14T12:53:21;1.73;;;1.43;;
24277;SDS011;12394;42.692;23.314;2023-12-14T12:55:46;1.67;;;1.40;;
24277;SDS011;12394;42.692;23.314;2023-12-14T12:58:12;2.43;;;1.50;;
24277;SDS011;12394;42.692;23.314;2023-12-14T13:00:39;4.20;;;2.67;;
24277;SDS011;12394;42.692;23.314;2023-12-14T13:03:05;2.57;;;1.53;;
24277;SDS011;12394;42.692;23.314;2023-12-14T13:05:30;2.93;;;1.80;;
24277;SDS011;12394;42.692;23.314;2023-12-14T13:07:56;2.23;;;1.70;;
24277;SDS011;12394;42.692;23.314;2023-12-14T13:10:22;4.03;;;1.50;;
24277;SDS011;12394;42.692;23.314;2023-12-14T13:12:52;4.23;;;1.67;;
24277;SDS011;12394;42.692;23.314;2023-12-14T13:15:18;5.40;;;1.73;;
24277;SDS011;12394;42.692;23.314;2023-12-14T13:17:44;3.13;;;2.10;;
24277;SDS011;12394;42.692;23.314;2023-12-14T13:20:09;4.53;;;1.60;;
24277;SDS011;12394;42.692;23.314;2023-12-14T13:22:35;7.23;;;1.57;;
24277;SDS011;12394;42.692;23.314;2023-12-14T13:25:00;1.63;;;1.13;;
24277;SDS011;12394;42.692;23.314;2023-12-14T13:27:26;2.93;;;1.30;;
24277;SDS011;12394;42.692;23.314;2023-12-14T13:29:51;1.43;;;1.23;;
24277;SDS011;12394;42.692;23.314;2023-12-14T13:32:16;2.40;;;1.37;;
24277;SDS011;12394;42.692;23.314;2023-12-14T13:34:42;4.20;;;1.70;;
24277;SDS011;12394;42.692;23.314;2023-12-14T13:37:08;4.23;;;1.60;;
24277;SDS011;12394;42.692;23.314;2023-12-14T13:39:34;5.20;;;2.03;;
24277;SDS011;12394;42.692;23.314;2023-12-14T13:42:06;1.97;;;1.23;;
24277;SDS011;12394;42.692;23.314;2023-12-14T13:44:32;4.83;;;2.00;;
24277;SDS011;12394;42.692;23.314;2023-12-14T13:47:00;4.50;;;2.00;;
24277;SDS011;12394;42.692;23.314;2023-12-14T13:49:29;6.13;;;2.20;;
24277;SDS011;12394;42.692;23.314;2023-12-14T13:51:54;4.37;;;3.03;;
24277;SDS011;12394;42.692;23.314;2023-12-14T13:54:20;6.17;;;3.23;;
24277;SDS011;12394;42.692;23.314;2023-12-14T13:56:45;5.80;;;3.33;;
24277;SDS011;12394;42.692;23.314;2023-12-14T13:59:11;6.30;;;3.27;;
24277;SDS011;12394;42.692;23.314;2023-12-14T14:01:36;5.93;;;3.13;;
24277;SDS011;12394;42.692;23.314;2023-12-14T14:04:03;11.30;;;3.07;;
24277;SDS011;12394;42.692;23.314;2023-12-14T14:06:28;3.97;;;2.37;;
24277;SDS011;12394;42.692;23.314;2023-12-14T14:08:54;5.77;;;2.80;;
24277;SDS011;12394;42.692;23.314;2023-12-14T14:11:20;7.83;;;4.50;;
24277;SDS011;12394;42.692;23.314;2023-12-14T14:13:46;4.90;;;4.00;;
24277;SDS011;12394;42.692;23.314;2023-12-14T14:16:11;4.47;;;3.17;;
24277;SDS011;12394;42.692;23.314;2023-12-14T14:18:37;2.30;;;1.50;;
24277;SDS011;12394;42.692;23.314;2023-12-14T14:21:02;2.60;;;1.50;;